createdAt,value
2018-02-17T00:00:48.309Z,47.77
2018-02-17T00:03:19.284Z,40.72
2018-02-17T00:05:50.107Z,48.70
2018-02-17T00:08:20.144Z,51.63
2018-02-17T00:10:48.945Z,47.70
2018-02-17T00:13:18.126Z,42.05
2018-02-17T00:15:47.218Z,39.97
2018-02-17T00:18:16.383Z,40.27
2018-02-17T00:20:45.403Z,40.20
2018-02-17T00:23:14.358Z,35.67
2018-02-17T00:25:43.288Z,40.37
2018-02-17T00:28:11.999Z,33.83
2018-02-17T00:30:40.661Z,38.57
2018-02-17T00:33:09.447Z,38.33
2018-02-17T00:35:38.828Z,40.67
2018-02-17T00:38:07.611Z,40.97
2018-02-17T00:40:36.385Z,40.63
2018-02-17T00:43:05.540Z,38.30
2018-02-17T00:45:34.359Z,43.57
2018-02-17T00:48:03.284Z,40.63
2018-02-17T00:50:32.552Z,44.73
2018-02-17T00:53:01.345Z,45.00
2018-02-17T00:55:30.260Z,49.20
2018-02-17T00:57:59.446Z,58.17
2018-02-17T01:00:28.339Z,51.00
2018-02-17T01:02:57.291Z,51.47
2018-02-17T01:05:26.464Z,54.10
2018-02-17T01:07:55.602Z,54.53
2018-02-17T01:10:24.399Z,54.70
2018-02-17T01:12:53.426Z,55.00
2018-02-17T01:15:22.308Z,49.83
2018-02-17T01:17:51.308Z,53.00
2018-02-17T01:20:20.473Z,51.33
2018-02-17T01:22:49.372Z,52.53
2018-02-17T01:25:18.435Z,49.80
2018-02-17T01:27:47.395Z,53.73
2018-02-17T01:30:16.502Z,49.57
2018-02-17T01:32:47.767Z,51.37
2018-02-17T01:35:16.581Z,51.53
2018-02-17T01:37:45.369Z,48.10
2018-02-17T01:40:14.227Z,57.33
2018-02-17T01:42:43.221Z,51.57
2018-02-17T01:45:12.287Z,55.97
2018-02-17T01:47:41.335Z,57.83
2018-02-17T01:50:21.464Z,56.37
2018-02-17T01:52:50.287Z,53.30
2018-02-17T01:55:19.096Z,56.57
2018-02-17T01:57:47.751Z,52.13
2018-02-17T02:00:16.616Z,57.27
2018-02-17T02:02:45.387Z,49.90
2018-02-17T02:05:14.311Z,61.43
2018-02-17T02:07:43.223Z,55.53
2018-02-17T02:10:12.212Z,54.43
2018-02-17T02:12:41.023Z,65.70
2018-02-17T02:15:10.179Z,68.22
2018-02-17T02:17:38.963Z,62.03
2018-02-17T02:20:07.768Z,72.13
2018-02-17T02:22:36.715Z,59.90
2018-02-17T02:25:05.515Z,71.20
2018-02-17T02:27:34.296Z,58.77
2018-02-17T02:30:03.151Z,64.17
2018-02-17T02:32:32.236Z,59.40
2018-02-17T02:35:01.225Z,59.13
2018-02-17T02:37:30.359Z,60.78
2018-02-17T02:39:59.312Z,58.77
2018-02-17T02:42:28.325Z,67.40
2018-02-17T02:44:57.337Z,63.90
2018-02-17T02:47:26.297Z,60.37
2018-02-17T02:49:55.260Z,60.23
2018-02-17T02:52:24.699Z,54.27
2018-02-17T02:54:53.488Z,61.00
2018-02-17T02:57:22.264Z,55.17
2018-02-17T02:59:51.350Z,61.00
2018-02-17T03:02:20.509Z,71.27
2018-02-17T03:04:50.798Z,55.57
2018-02-17T03:07:19.969Z,62.03
2018-02-17T03:09:48.755Z,55.83
2018-02-17T03:12:17.671Z,60.53
2018-02-17T03:14:46.795Z,57.80
2018-02-17T03:17:15.862Z,58.00
2018-02-17T03:19:44.939Z,60.58
2018-02-17T03:22:14.414Z,59.63
2018-02-17T03:24:43.592Z,63.95
2018-02-17T03:27:12.655Z,56.17
2018-02-17T03:29:41.804Z,61.70
2018-02-17T03:32:10.885Z,57.50
2018-02-17T03:34:41.307Z,68.36
2018-02-17T03:37:10.839Z,59.65
2018-02-17T03:39:41.511Z,54.33
2018-02-17T03:42:12.319Z,60.75
2018-02-17T03:44:43.216Z,60.33
2018-02-17T03:47:14.425Z,63.76
2018-02-17T03:49:44.943Z,57.24
2018-02-17T03:52:15.347Z,60.76
2018-02-17T03:54:46.752Z,58.40
2018-02-17T03:57:17.359Z,60.85
2018-02-17T03:59:48.772Z,58.46
2018-02-17T04:02:19.485Z,64.55
2018-02-17T04:04:50.425Z,55.67
2018-02-17T04:07:21.223Z,55.45
2018-02-17T04:09:52.171Z,61.30
2018-02-17T04:12:23.200Z,53.58
2018-02-17T04:14:54.131Z,60.08
2018-02-17T04:17:24.418Z,54.70
2018-02-17T04:19:55.024Z,52.92
2018-02-17T04:22:25.694Z,53.35
2018-02-17T04:24:57.081Z,52.56
2018-02-17T04:27:27.731Z,60.47
2018-02-17T04:29:57.616Z,52.05
2018-02-17T04:32:28.312Z,57.47
2018-02-17T04:34:59.158Z,53.47
2018-02-17T04:37:32.984Z,52.96
2018-02-17T04:40:05.720Z,54.88
2018-02-17T04:42:39.366Z,51.34
2018-02-17T04:45:21.214Z,52.72
2018-02-17T04:51:10.675Z,52.92
2018-02-17T04:53:54.203Z,55.57
2018-02-17T04:56:28.744Z,52.90
2018-02-17T04:59:02.367Z,52.80
2018-02-17T05:04:47.071Z,53.67
2018-02-17T05:10:23.993Z,50.50
2018-02-17T05:12:52.979Z,53.13
2018-02-17T05:15:21.896Z,49.58
2018-02-17T05:17:56.614Z,53.87
2018-02-17T05:20:44.163Z,45.95
2018-02-17T05:23:13.536Z,45.63
2018-02-17T05:25:47.884Z,52.07
2018-02-17T05:28:22.361Z,49.60
2018-02-17T05:30:51.288Z,49.20
2018-02-17T05:33:21.998Z,56.10
2018-02-17T05:35:58.508Z,56.28
2018-02-17T05:38:39.907Z,50.70
2018-02-17T05:41:08.703Z,47.63
2018-02-17T05:43:37.348Z,54.27
2018-02-17T05:49:17.708Z,46.88
2018-02-17T05:51:46.420Z,52.93
2018-02-17T05:54:15.421Z,51.60
2018-02-17T05:56:44.253Z,50.97
2018-02-17T05:59:13.754Z,51.88
2018-02-17T06:01:42.551Z,51.07
2018-02-17T06:04:11.634Z,42.57
2018-02-17T06:06:40.492Z,48.50
2018-02-17T06:09:09.296Z,45.23
2018-02-17T06:11:38.191Z,46.47
2018-02-17T06:14:07.204Z,45.27
2018-02-17T06:16:36.091Z,50.97
2018-02-17T06:19:05.044Z,51.13
2018-02-17T06:21:34.198Z,53.15
2018-02-17T06:24:03.296Z,51.60
2018-02-17T06:26:32.332Z,45.17
2018-02-17T06:29:01.430Z,47.90
2018-02-17T06:31:30.681Z,54.37
2018-02-17T06:33:59.505Z,45.67
2018-02-17T06:36:28.348Z,53.73
2018-02-17T06:38:57.298Z,49.47
2018-02-17T06:41:26.323Z,58.63
2018-02-17T06:43:55.295Z,52.93
2018-02-17T06:46:24.319Z,48.07
2018-02-17T06:48:53.852Z,47.50
2018-02-17T06:51:22.710Z,41.53
2018-02-17T06:53:51.856Z,39.70
2018-02-17T06:56:20.822Z,51.17
2018-02-17T06:58:49.715Z,48.50
2018-02-17T07:01:18.799Z,46.33
2018-02-17T07:03:47.612Z,48.00
2018-02-17T07:06:16.440Z,52.40
2018-02-17T07:08:45.252Z,47.33
2018-02-17T07:11:14.211Z,45.73
2018-02-17T07:13:43.335Z,49.95
2018-02-17T07:16:12.424Z,54.37
2018-02-17T07:18:41.811Z,52.88
2018-02-17T07:21:10.878Z,53.90
2018-02-17T07:23:39.957Z,51.35
2018-02-17T07:26:09.180Z,48.55
2018-02-17T07:28:38.117Z,53.70
2018-02-17T07:31:07.219Z,52.63
2018-02-17T07:33:36.351Z,52.92
2018-02-17T07:36:05.416Z,51.90
2018-02-17T07:38:35.855Z,59.32
2018-02-17T07:41:06.060Z,51.36
2018-02-17T07:43:36.382Z,52.90
2018-02-17T07:46:07.768Z,52.32
2018-02-17T07:48:38.066Z,55.74
2018-02-17T07:51:08.547Z,54.13
2018-02-17T07:53:39.376Z,56.30
2018-02-17T07:56:10.338Z,64.37
2018-02-17T07:58:41.152Z,55.65
2018-02-17T08:01:12.469Z,56.48
2018-02-17T08:03:43.403Z,57.00
2018-02-17T08:06:13.940Z,62.62
2018-02-17T08:08:44.523Z,57.15
2018-02-17T08:11:15.532Z,60.85
2018-02-17T08:13:48.779Z,56.05
2018-02-17T08:16:18.065Z,56.13
2018-02-17T08:18:48.761Z,61.92
2018-02-17T08:21:19.438Z,60.63
2018-02-17T08:23:50.296Z,59.92
2018-02-17T08:26:21.157Z,56.92
2018-02-17T08:28:52.375Z,54.80
2018-02-17T08:31:23.208Z,51.85
2018-02-17T08:33:55.264Z,54.58
2018-02-17T08:36:25.068Z,57.17
2018-02-17T08:38:56.216Z,49.67
2018-02-17T08:41:26.816Z,62.84
2018-02-17T08:43:57.408Z,48.70
2018-02-17T08:46:28.364Z,46.83
2018-02-17T08:48:59.268Z,59.40
2018-02-17T08:51:30.235Z,49.67
2018-02-17T08:54:01.131Z,52.25
2018-02-17T08:56:32.599Z,43.54
2018-02-17T08:59:03.462Z,47.50
2018-02-17T09:01:34.383Z,45.50
2018-02-17T09:04:05.483Z,48.40
2018-02-17T09:06:36.413Z,46.70
2018-02-17T09:09:07.291Z,46.42
2018-02-17T09:11:38.064Z,46.42
2018-02-17T09:14:09.317Z,51.16
2018-02-17T09:16:40.218Z,39.60
2018-02-17T09:19:12.346Z,38.46
2018-02-17T09:21:42.983Z,43.28
2018-02-17T09:24:13.598Z,36.90
2018-02-17T09:26:45.123Z,35.80
2018-02-17T09:29:15.730Z,40.28
2018-02-17T09:31:46.559Z,36.50
2018-02-17T09:34:17.406Z,33.53
2018-02-17T09:36:48.404Z,37.92
2018-02-17T09:39:19.358Z,43.22
2018-02-17T09:41:50.287Z,34.85
2018-02-17T09:44:21.172Z,34.00
2018-02-17T09:46:52.521Z,34.54
2018-02-17T09:49:23.389Z,34.72
2018-02-17T09:51:54.683Z,46.35
2018-02-17T09:54:26.497Z,38.80
2018-02-17T09:56:58.220Z,40.56
2018-02-17T09:59:28.889Z,42.40
2018-02-17T10:01:58.053Z,38.50
2018-02-17T10:04:28.536Z,44.53
2018-02-17T10:06:59.423Z,39.42
2018-02-17T10:09:29.978Z,37.38
2018-02-17T10:12:00.484Z,42.78
2018-02-17T10:14:31.440Z,36.42
2018-02-17T10:17:02.313Z,37.08
2018-02-17T10:19:32.970Z,39.12
2018-02-17T10:22:03.552Z,40.28
2018-02-17T10:24:34.603Z,41.40
2018-02-17T10:27:05.140Z,39.62
2018-02-17T10:29:35.636Z,45.42
2018-02-17T10:32:06.162Z,38.70
2018-02-17T10:34:36.546Z,39.33
2018-02-17T10:37:07.389Z,43.90
2018-02-17T10:39:38.315Z,45.58
2018-02-17T10:42:09.163Z,37.25
2018-02-17T10:44:40.454Z,42.22
2018-02-17T10:47:11.624Z,41.55
2018-02-17T10:49:42.709Z,38.80
2018-02-17T10:52:13.410Z,36.05
2018-02-17T10:54:44.299Z,36.25
2018-02-17T10:57:15.131Z,40.10
2018-02-17T10:59:46.522Z,42.52
2018-02-17T11:02:17.417Z,43.58
2018-02-17T11:04:48.441Z,41.05
2018-02-17T11:07:18.192Z,38.80
2018-02-17T11:09:48.823Z,38.20
2018-02-17T11:12:20.068Z,35.70
2018-02-17T11:14:50.774Z,37.95
2018-02-17T11:17:22.980Z,31.44
2018-02-17T11:19:54.451Z,40.44
2018-02-17T11:22:25.407Z,34.90
2018-02-17T11:24:56.267Z,33.83
2018-02-17T11:27:26.795Z,39.46
2018-02-17T11:29:57.560Z,35.17
2018-02-17T11:32:28.417Z,41.45
2018-02-17T11:34:59.354Z,35.20
2018-02-17T11:37:30.349Z,32.50
2018-02-17T11:40:01.286Z,34.33
2018-02-17T11:42:32.618Z,37.15
2018-02-17T11:45:05.208Z,29.15
2018-02-17T11:47:34.992Z,29.45
2018-02-17T11:50:05.299Z,27.76
2018-02-17T11:52:34.676Z,27.80
2018-02-17T11:55:05.366Z,28.38
2018-02-17T11:57:36.040Z,34.35
2018-02-17T12:00:06.373Z,30.77
2018-02-17T12:02:36.853Z,31.27
2018-02-17T12:05:07.807Z,26.30
2018-02-17T12:07:38.701Z,32.67
2018-02-17T12:10:10.447Z,33.24
2018-02-17T12:12:41.283Z,31.25
2018-02-17T12:15:12.254Z,30.58
2018-02-17T12:17:43.121Z,34.15
2018-02-17T12:20:16.258Z,27.68
2018-02-17T12:22:45.847Z,23.65
2018-02-17T12:25:16.583Z,27.62
2018-02-17T12:27:47.092Z,29.37
2018-02-17T12:30:19.737Z,27.27
2018-02-17T12:32:50.189Z,26.60
2018-02-17T12:35:20.848Z,27.38
2018-02-17T12:37:51.442Z,30.30
2018-02-17T12:40:22.361Z,28.45
2018-02-17T12:42:53.213Z,27.02
2018-02-17T12:45:24.989Z,25.60
2018-02-17T12:47:55.846Z,23.73
2018-02-17T12:50:26.480Z,26.60
2018-02-17T12:52:57.933Z,25.32
2018-02-17T12:55:28.562Z,25.30
2018-02-17T12:57:59.404Z,27.65
2018-02-17T13:00:30.324Z,23.10
2018-02-17T13:03:01.576Z,19.90
2018-02-17T13:05:32.515Z,25.25
2018-02-17T13:08:02.240Z,23.10
2018-02-17T13:10:33.218Z,15.75
2018-02-17T13:13:04.164Z,17.08
2018-02-17T13:15:35.515Z,32.56
2018-02-17T13:18:06.386Z,25.98
2018-02-17T13:20:37.260Z,19.08
2018-02-17T13:23:08.172Z,20.60
2018-02-17T13:25:39.563Z,35.04
2018-02-17T13:28:09.974Z,26.25
2018-02-17T13:30:41.544Z,20.26
2018-02-17T13:33:15.200Z,25.12
2018-02-17T13:35:44.346Z,17.77
2018-02-17T13:38:14.927Z,21.46
2018-02-17T13:40:45.571Z,20.10
2018-02-17T13:43:17.223Z,23.62
2018-02-17T13:45:47.802Z,65.50
2018-02-17T13:48:18.525Z,83.28
2018-02-17T13:50:49.471Z,140.95
2018-02-17T13:53:20.218Z,125.45
2018-02-17T13:55:52.463Z,86.10
2018-02-17T13:58:23.576Z,69.00
2018-02-17T14:00:54.125Z,50.66
2018-02-17T14:03:24.434Z,52.67
2018-02-17T14:05:55.065Z,30.98
2018-02-17T14:08:25.511Z,31.15
2018-02-17T14:10:56.423Z,42.88
2018-02-17T14:13:27.305Z,44.40
2018-02-17T14:15:58.233Z,34.92
2018-02-17T14:18:29.780Z,149.84
2018-02-17T14:21:00.200Z,34.36
2018-02-17T14:23:33.160Z,35.00
2018-02-17T14:26:02.401Z,35.17
2018-02-17T14:28:33.533Z,36.40
2018-02-17T14:31:04.098Z,24.74
2018-02-17T14:33:33.739Z,29.37
2018-02-17T14:36:04.459Z,42.13
2018-02-17T14:38:35.416Z,32.63
2018-02-17T14:41:06.331Z,32.58
2018-02-17T14:43:37.181Z,42.05
2018-02-17T14:46:08.193Z,29.25
2018-02-17T14:48:39.003Z,27.65
2018-02-17T14:51:10.446Z,30.56
2018-02-17T14:53:41.320Z,27.27
2018-02-17T14:56:12.391Z,44.85
2018-02-17T14:58:43.384Z,38.38
2018-02-17T15:01:14.283Z,57.03
2018-02-17T15:03:44.780Z,110.66
2018-02-17T15:06:15.599Z,88.25
2018-02-17T15:08:46.551Z,44.20
2018-02-17T15:11:17.466Z,32.90
2018-02-17T15:13:48.412Z,26.87
2018-02-17T15:16:19.285Z,31.52
2018-02-17T15:18:50.522Z,28.92
2018-02-17T15:21:21.118Z,28.90
2018-02-17T15:23:52.194Z,32.63
2018-02-17T15:26:23.151Z,29.80
2018-02-17T15:28:53.579Z,28.12
2018-02-17T15:31:24.559Z,37.60
2018-02-17T15:33:54.989Z,33.64
2018-02-17T15:36:25.578Z,45.35
2018-02-17T15:38:56.438Z,52.75
2018-02-17T15:41:27.382Z,49.97
2018-02-17T15:43:58.313Z,42.15
2018-02-17T15:46:29.462Z,37.88
2018-02-17T15:49:00.320Z,43.42
2018-02-17T15:51:30.891Z,66.54
2018-02-17T15:54:01.530Z,63.85
2018-02-17T15:56:32.442Z,77.78
2018-02-17T15:59:03.017Z,83.68
2018-02-17T16:01:33.536Z,91.90
2018-02-17T16:04:04.396Z,126.55
2018-02-17T16:06:35.382Z,169.95
2018-02-17T16:09:05.991Z,139.85
2018-02-17T16:11:37.335Z,155.34
2018-02-17T16:14:08.382Z,216.85
2018-02-17T16:16:39.301Z,211.15
2018-02-17T16:19:17.288Z,222.78
2018-02-17T16:22:09.716Z,260.67
2018-02-17T16:24:39.276Z,229.20
2018-02-17T16:27:08.548Z,191.43
2018-02-17T16:29:37.229Z,156.73
2018-02-17T16:32:06.405Z,147.40
2018-02-17T16:34:36.111Z,171.17
2018-02-17T16:37:05.225Z,151.57
2018-02-17T16:39:34.188Z,151.23
2018-02-17T16:42:03.858Z,184.57
2018-02-17T16:44:32.977Z,243.60
2018-02-17T16:47:02.104Z,185.93
2018-02-17T16:49:31.362Z,219.07
2018-02-17T16:52:00.597Z,216.18
2018-02-17T16:54:29.869Z,173.07
2018-02-17T16:56:59.203Z,162.36
2018-02-17T16:59:28.572Z,149.63
2018-02-17T17:01:58.108Z,148.07
2018-02-17T17:04:28.698Z,158.00
2018-02-17T17:06:59.201Z,146.90
2018-02-17T17:09:30.551Z,131.22
2018-02-17T17:12:01.330Z,177.87
2018-02-17T17:14:32.354Z,193.32
2018-02-17T17:17:03.276Z,179.70
2018-02-17T17:19:34.263Z,169.75
2018-02-17T17:22:04.892Z,133.30
2018-02-17T17:24:35.211Z,125.24
2018-02-17T17:27:05.929Z,145.62
2018-02-17T17:29:36.520Z,154.12
2018-02-17T17:32:07.618Z,183.50
2018-02-17T17:34:38.672Z,187.98
2018-02-17T17:37:09.023Z,184.07
2018-02-17T17:39:40.781Z,191.64
2018-02-17T17:42:12.372Z,152.80
2018-02-17T17:44:43.116Z,154.68
2018-02-17T17:47:13.610Z,157.25
2018-02-17T17:49:44.510Z,146.02
2018-02-17T17:52:15.482Z,140.82
2018-02-17T17:54:46.442Z,120.43
2018-02-17T17:57:17.310Z,111.40
2018-02-17T17:59:48.256Z,106.25
2018-02-17T18:02:19.168Z,107.63
2018-02-17T18:04:50.160Z,113.75
2018-02-17T18:07:21.999Z,105.20
2018-02-17T18:09:52.601Z,115.60
2018-02-17T18:12:23.560Z,97.88
2018-02-17T18:14:54.500Z,79.28
2018-02-17T18:17:25.369Z,86.28
2018-02-17T18:19:56.269Z,85.53
2018-02-17T18:22:26.783Z,90.78
2018-02-17T18:24:57.465Z,77.40
2018-02-17T18:27:28.295Z,79.80
2018-02-17T18:30:03.868Z,72.37
2018-02-17T18:32:33.117Z,64.75
2018-02-17T18:35:02.232Z,63.80
2018-02-17T18:37:32.810Z,68.60
2018-02-17T18:40:03.476Z,66.25
2018-02-17T18:42:34.357Z,71.53
2018-02-17T18:45:05.204Z,73.12
2018-02-17T18:47:35.756Z,68.74
2018-02-17T18:50:06.109Z,66.57
2018-02-17T18:52:37.476Z,69.26
2018-02-17T18:55:07.988Z,95.94
2018-02-17T18:57:40.888Z,102.78
2018-02-17T19:00:10.085Z,192.17
2018-02-17T19:02:40.566Z,458.83
2018-02-17T19:05:11.340Z,525.72
2018-02-17T19:07:42.112Z,399.74
2018-02-17T19:10:12.352Z,307.37
2018-02-17T19:12:43.184Z,233.20
2018-02-17T19:15:14.160Z,225.73
2018-02-17T19:17:45.648Z,199.18
2018-02-17T19:20:20.861Z,198.55
2018-02-17T19:22:55.879Z,194.78
2018-02-17T19:25:31.173Z,181.27
2018-02-17T19:30:36.809Z,144.13
2018-02-17T19:33:06.915Z,125.78
2018-02-17T19:35:36.072Z,140.77
2018-02-17T19:38:05.256Z,118.05
2018-02-17T19:40:34.648Z,122.37
2018-02-17T19:43:03.913Z,129.95
2018-02-17T19:45:33.095Z,183.65
2018-02-17T19:48:02.589Z,230.77
2018-02-17T19:50:31.816Z,238.32
2018-02-17T19:53:01.949Z,245.12
2018-02-17T19:55:31.158Z,241.20
2018-02-17T19:58:00.673Z,250.34
2018-02-17T20:00:31.301Z,308.04
2018-02-17T20:03:02.062Z,338.75
2018-02-17T20:05:33.193Z,264.67
2018-02-17T20:08:04.494Z,288.25
2018-02-17T20:10:35.078Z,252.02
2018-02-17T20:13:06.670Z,254.22
2018-02-17T20:15:37.252Z,314.90
2018-02-17T20:18:07.944Z,320.52
2018-02-17T20:20:38.986Z,313.83
2018-02-17T20:23:19.275Z,352.15
2018-02-17T20:25:54.264Z,276.35
2018-02-17T20:28:28.818Z,263.55
2018-02-17T20:37:04.969Z,161.77
2018-02-17T20:39:48.644Z,143.83
2018-02-17T20:42:28.025Z,119.33
2018-02-17T20:44:56.885Z,119.17
2018-02-17T20:47:25.584Z,111.63
2018-02-17T20:49:55.909Z,110.60
2018-02-17T20:52:24.783Z,118.47
2018-02-17T20:54:53.817Z,122.17
2018-02-17T20:57:22.876Z,204.17
2018-02-17T20:59:51.721Z,236.00
2018-02-17T21:02:26.890Z,217.70
2018-02-17T21:04:55.763Z,195.00
2018-02-17T21:07:26.035Z,175.97
2018-02-17T21:09:54.878Z,140.07
2018-02-17T21:12:23.801Z,94.73
2018-02-17T21:14:53.597Z,82.07
2018-02-17T21:17:22.748Z,75.10
2018-02-17T21:19:51.682Z,72.67
2018-02-17T21:22:20.805Z,76.07
2018-02-17T21:24:49.733Z,76.53
2018-02-17T21:27:18.790Z,76.13
2018-02-17T21:29:49.696Z,81.07
2018-02-17T21:32:18.790Z,87.80
2018-02-17T21:34:47.740Z,85.23
2018-02-17T21:37:16.818Z,88.10
2018-02-17T21:39:45.712Z,97.20
2018-02-17T21:42:14.826Z,127.87
2018-02-17T21:44:43.866Z,131.77
2018-02-17T21:47:12.748Z,149.40
2018-02-17T21:49:41.788Z,183.20
2018-02-17T21:52:10.763Z,228.40
2018-02-17T21:54:39.755Z,205.83
2018-02-17T21:57:08.549Z,161.60
2018-02-17T21:59:37.696Z,158.45
2018-02-17T22:02:06.800Z,137.13
2018-02-17T22:04:35.808Z,134.77
2018-02-17T22:07:04.835Z,125.80
2018-02-17T22:09:33.717Z,114.40
2018-02-17T22:12:02.669Z,105.03
2018-02-17T22:14:31.770Z,92.93
2018-02-17T22:17:00.650Z,86.90
2018-02-17T22:19:29.668Z,95.17
2018-02-17T22:21:58.768Z,88.93
2018-02-17T22:24:27.712Z,91.83
2018-02-17T22:26:57.009Z,91.93
2018-02-17T22:29:25.888Z,92.07
2018-02-17T22:31:54.733Z,101.93
2018-02-17T22:34:23.634Z,96.07
2018-02-17T22:36:52.943Z,92.57
2018-02-17T22:39:21.858Z,101.50
2018-02-17T22:41:50.676Z,146.27
2018-02-17T22:44:20.596Z,163.13
2018-02-17T22:46:49.723Z,139.57
2018-02-17T22:49:18.812Z,118.78
2018-02-17T22:51:47.763Z,113.77
2018-02-17T22:54:17.475Z,115.00
2018-02-17T22:56:46.589Z,117.15
2018-02-17T22:59:17.377Z,104.18
2018-02-17T23:01:47.629Z,96.53
2018-02-17T23:04:16.944Z,90.30
2018-02-17T23:06:46.776Z,90.47
2018-02-17T23:09:16.852Z,99.47
2018-02-17T23:11:46.078Z,94.22
2018-02-17T23:14:15.229Z,100.57
2018-02-17T23:16:44.744Z,120.93
2018-02-17T23:19:14.262Z,143.80
2018-02-17T23:21:45.568Z,148.23
2018-02-17T23:24:16.127Z,133.70
2018-02-17T23:26:46.884Z,115.78
2018-02-17T23:29:17.738Z,105.18
2018-02-17T23:31:48.635Z,124.12
2018-02-17T23:34:19.553Z,114.95
2018-02-17T23:36:50.001Z,153.60
2018-02-17T23:39:20.972Z,132.82
2018-02-17T23:41:51.894Z,99.25
2018-02-17T23:44:22.382Z,93.30
2018-02-17T23:46:53.811Z,124.48
2018-02-17T23:49:24.703Z,94.82
2018-02-17T23:51:55.654Z,85.80
2018-02-17T23:54:26.280Z,89.13
2018-02-17T23:56:58.006Z,89.72
2018-02-17T23:59:29.838Z,90.05
